createdAt,value
2018-02-06T00:02:08.624Z,26.52
2018-02-06T00:04:36.185Z,23.35
2018-02-06T00:07:03.709Z,23.83
2018-02-06T00:09:31.248Z,24.63
2018-02-06T00:11:58.835Z,24.95
2018-02-06T00:14:27.119Z,23.65
2018-02-06T00:16:55.388Z,23.75
2018-02-06T00:19:22.932Z,27.50
2018-02-06T00:21:50.441Z,27.08
2018-02-06T00:24:17.983Z,27.20
2018-02-06T00:26:45.487Z,23.58
2018-02-06T00:29:13.023Z,22.33
2018-02-06T00:31:40.537Z,27.65
2018-02-06T00:34:08.895Z,26.98
2018-02-06T00:36:36.381Z,27.37
2018-02-06T00:39:04.683Z,32.47
2018-02-06T00:41:32.229Z,25.42
2018-02-06T00:44:00.508Z,29.92
2018-02-06T00:46:28.085Z,26.62
2018-02-06T00:48:55.600Z,26.70
2018-02-06T00:51:23.118Z,23.80
2018-02-06T00:53:50.659Z,27.92
2018-02-06T00:56:18.167Z,28.50
2018-02-06T00:58:45.710Z,25.12
2018-02-06T01:01:13.233Z,27.60
2018-02-06T01:03:40.756Z,27.13
2018-02-06T01:06:08.273Z,29.50
2018-02-06T01:08:35.827Z,27.25
2018-02-06T01:11:03.334Z,25.17
2018-02-06T01:13:31.623Z,30.60
2018-02-06T01:15:59.169Z,24.50
2018-02-06T01:18:26.703Z,24.12
2018-02-06T01:20:54.198Z,34.55
2018-02-06T01:23:22.488Z,26.75
2018-02-06T01:25:50.029Z,26.40
2018-02-06T01:28:18.351Z,25.60
2018-02-06T01:30:45.861Z,28.42
2018-02-06T01:33:14.181Z,27.00
2018-02-06T01:35:41.666Z,27.27
2018-02-06T01:38:09.171Z,25.30
2018-02-06T01:40:37.477Z,29.25
2018-02-06T01:43:05.752Z,29.05
2018-02-06T01:45:33.269Z,24.45
2018-02-06T01:48:01.572Z,23.40
2018-02-06T01:50:29.089Z,30.17
2018-02-06T01:52:56.621Z,29.85
2018-02-06T01:55:24.145Z,27.87
2018-02-06T01:57:51.639Z,29.63
2018-02-06T02:00:19.174Z,26.62
2018-02-06T02:02:46.671Z,28.25
2018-02-06T02:05:14.200Z,35.70
2018-02-06T02:07:41.738Z,29.63
2018-02-06T02:10:09.247Z,26.08
2018-02-06T02:12:36.775Z,27.00
2018-02-06T02:15:04.279Z,28.70
2018-02-06T02:17:31.813Z,29.85
2018-02-06T02:19:59.339Z,25.12
2018-02-06T02:22:26.851Z,26.48
2018-02-06T02:24:54.390Z,27.02
2018-02-06T02:27:21.899Z,28.87
2018-02-06T02:29:49.428Z,31.40
2018-02-06T02:32:16.956Z,30.75
2018-02-06T02:34:44.503Z,29.77
2018-02-06T02:37:12.000Z,29.50
2018-02-06T02:39:39.505Z,30.02
2018-02-06T04:40:18.661Z,30.83
2018-02-06T04:42:46.183Z,32.95
2018-02-06T04:45:13.709Z,32.65
2018-02-06T04:47:42.011Z,32.47
2018-02-06T04:50:09.509Z,34.15
2018-02-06T04:52:37.047Z,36.47
2018-02-06T04:55:04.546Z,33.88
2018-02-06T04:57:32.848Z,31.73
2018-02-06T05:00:00.367Z,31.85
2018-02-06T05:02:27.891Z,31.58
2018-02-06T05:04:55.434Z,35.75
2018-02-06T05:07:22.958Z,29.87
2018-02-06T05:09:51.260Z,35.05
2018-02-06T05:12:18.763Z,34.83
2018-02-06T05:14:46.303Z,36.33
2018-02-06T05:17:13.805Z,32.28
2018-02-06T05:19:41.298Z,37.63
2018-02-06T05:22:08.848Z,31.55
2018-02-06T05:24:36.392Z,31.08
2018-02-06T05:27:04.663Z,39.08
2018-02-06T05:29:32.951Z,30.35
2018-02-06T05:32:00.493Z,30.15
2018-02-06T05:34:27.991Z,38.67
2018-02-06T05:36:55.520Z,35.55
2018-02-06T05:39:23.803Z,33.20
2018-02-06T05:41:51.328Z,36.55
2018-02-06T05:44:18.883Z,33.42
2018-02-06T05:46:46.407Z,34.00
2018-02-06T05:49:13.925Z,32.45
2018-02-06T05:51:42.215Z,32.08
2018-02-06T05:54:09.761Z,28.12
2018-02-06T05:56:38.066Z,31.37
2018-02-06T05:59:05.580Z,34.50
2018-02-06T06:01:33.111Z,33.50
2018-02-06T06:04:00.617Z,33.97
2018-02-06T06:06:28.906Z,36.28
2018-02-06T06:08:57.199Z,35.42
2018-02-06T06:11:24.734Z,37.80
2018-02-06T06:13:53.003Z,35.13
2018-02-06T06:16:21.301Z,34.97
2018-02-06T06:18:48.836Z,37.90
2018-02-06T06:21:17.110Z,37.15
2018-02-06T06:23:44.635Z,32.90
2018-02-06T06:26:12.172Z,37.55
2018-02-06T06:28:39.684Z,38.45
2018-02-06T06:31:08.009Z,34.88
2018-02-06T06:33:36.281Z,34.35
2018-02-06T06:36:03.786Z,35.55
2018-02-06T06:38:31.327Z,35.92
2018-02-06T06:40:58.874Z,33.40
2018-02-06T06:43:26.430Z,35.35
2018-02-06T06:45:54.016Z,33.17
2018-02-06T06:48:21.535Z,39.58
2018-02-06T06:50:49.049Z,35.13
2018-02-06T06:53:17.347Z,32.60
2018-02-06T06:55:44.896Z,36.58
2018-02-06T06:58:13.188Z,36.00
2018-02-06T07:00:40.690Z,38.28
2018-02-06T07:03:08.213Z,30.30
2018-02-06T07:05:35.725Z,40.28
2018-02-06T07:08:03.239Z,34.03
2018-02-06T07:10:30.768Z,36.40
2018-02-06T07:12:58.266Z,36.13
2018-02-06T07:15:25.904Z,36.92
2018-02-06T07:17:53.431Z,37.75
2018-02-06T07:20:20.944Z,36.10
2018-02-06T07:22:48.487Z,31.83
2018-02-06T07:25:15.999Z,35.17
2018-02-06T07:27:43.531Z,37.22
2018-02-06T07:30:11.025Z,36.15
2018-02-06T07:32:39.326Z,34.97
2018-02-06T07:35:06.883Z,36.03
2018-02-06T07:37:34.407Z,30.12
2018-02-06T07:40:01.936Z,41.05
2018-02-06T07:42:29.452Z,35.58
2018-02-06T07:44:56.985Z,31.98
2018-02-06T07:47:24.535Z,34.60
2018-02-06T07:49:52.057Z,39.72
2018-02-06T07:52:19.598Z,34.25
2018-02-06T07:54:47.130Z,37.85
2018-02-06T07:57:15.407Z,34.40
2018-02-06T07:59:43.688Z,41.25
2018-02-06T08:02:11.980Z,34.58
2018-02-06T08:04:39.548Z,38.85
2018-02-06T08:07:07.082Z,38.40
2018-02-06T08:09:35.400Z,34.75
2018-02-06T08:12:02.937Z,36.53
2018-02-06T08:14:30.457Z,35.75
2018-02-06T08:16:57.986Z,37.40
2018-02-06T08:19:25.495Z,36.05
2018-02-06T08:21:53.784Z,37.17
2018-02-06T08:24:21.300Z,43.28
2018-02-06T08:26:49.256Z,31.77
2018-02-06T08:29:16.802Z,36.17
2018-02-06T08:31:44.349Z,39.67
2018-02-06T08:34:11.889Z,44.33
2018-02-06T08:36:39.478Z,36.08
2018-02-06T08:39:06.998Z,38.05
2018-02-06T08:41:36.079Z,40.12
2018-02-06T08:44:03.732Z,36.95
2018-02-06T08:46:31.290Z,39.95
2018-02-06T08:48:58.856Z,37.67
2018-02-06T08:51:26.404Z,37.15
2018-02-06T08:53:54.018Z,37.78
2018-02-06T08:56:21.559Z,35.50
2018-02-06T08:58:49.078Z,37.65
2018-02-06T09:01:16.603Z,33.10
2018-02-06T09:03:44.098Z,34.00
2018-02-06T09:06:11.651Z,34.90
2018-02-06T09:08:39.192Z,39.03
2018-02-06T09:11:06.750Z,36.40
2018-02-06T09:13:34.262Z,37.20
2018-02-06T09:16:01.803Z,43.72
2018-02-06T09:18:30.145Z,35.13
2018-02-06T09:20:57.655Z,40.97
2018-02-06T09:23:26.021Z,37.78
2018-02-06T09:25:53.547Z,39.17
2018-02-06T09:28:21.489Z,38.20
2018-02-06T09:30:49.090Z,33.83
2018-02-06T09:33:16.606Z,42.58
2018-02-06T09:35:44.116Z,35.22
2018-02-06T09:38:11.664Z,40.88
2018-02-06T09:40:39.194Z,40.40
2018-02-06T09:43:06.767Z,36.70
2018-02-06T09:45:34.307Z,37.55
2018-02-06T09:48:01.837Z,34.95
2018-02-06T09:50:29.356Z,34.60
2018-02-06T09:52:56.924Z,37.17
2018-02-06T09:55:24.464Z,39.97
2018-02-06T09:57:51.997Z,41.25
2018-02-06T10:00:19.547Z,39.58
2018-02-06T10:02:47.079Z,38.20
2018-02-06T10:05:15.408Z,38.20
2018-02-06T10:07:42.924Z,38.00
2018-02-06T10:10:10.458Z,43.95
2018-02-06T10:12:37.989Z,38.92
2018-02-06T10:15:05.535Z,39.83
2018-02-06T10:17:33.059Z,41.10
2018-02-06T10:20:01.411Z,38.90
2018-02-06T10:22:28.953Z,38.08
2018-02-06T10:24:56.479Z,37.38
2018-02-06T10:27:24.038Z,37.75
2018-02-06T10:29:51.535Z,41.35
2018-02-06T10:32:19.068Z,38.38
2018-02-06T10:34:46.610Z,39.75
2018-02-06T10:37:14.129Z,39.15
2018-02-06T10:39:42.417Z,38.50
2018-02-06T10:42:12.886Z,40.30
2018-02-06T10:44:40.392Z,43.80
2018-02-06T10:47:07.931Z,38.60
2018-02-06T10:49:35.494Z,41.17
2018-02-06T10:52:03.018Z,40.38
2018-02-06T10:54:30.556Z,40.42
2018-02-06T10:56:58.073Z,42.30
2018-02-06T10:59:25.630Z,37.72
2018-02-06T11:01:53.151Z,44.08
2018-02-06T11:04:20.646Z,43.67
2018-02-06T11:06:48.166Z,41.97
2018-02-06T11:09:15.697Z,39.72
2018-02-06T11:11:43.212Z,40.92
2018-02-06T11:14:10.730Z,42.47
2018-02-06T11:16:38.256Z,41.05
2018-02-06T11:19:06.551Z,44.65
2018-02-06T11:21:34.131Z,38.65
2018-02-06T11:24:01.671Z,41.83
2018-02-06T11:26:29.194Z,42.88
2018-02-06T11:28:56.740Z,39.95
2018-02-06T11:31:24.241Z,44.97
2018-02-06T11:33:52.537Z,45.85
2018-02-06T11:36:20.846Z,42.85
2018-02-06T11:38:48.346Z,41.97
2018-02-06T11:41:16.652Z,42.40
2018-02-06T11:43:44.192Z,44.05
2018-02-06T11:46:11.733Z,47.20
2018-02-06T11:48:40.018Z,38.08
2018-02-06T11:51:08.331Z,42.95
2018-02-06T11:53:35.843Z,40.30
2018-02-06T11:56:04.128Z,40.03
2018-02-06T11:58:32.452Z,39.78
2018-02-06T12:01:00.056Z,42.75
2018-02-06T12:03:28.344Z,43.05
2018-02-06T12:05:56.645Z,44.53
2018-02-06T12:08:24.151Z,41.37
2018-02-06T12:10:51.700Z,43.13
2018-02-06T12:13:19.237Z,49.88
2018-02-06T12:15:46.804Z,42.35
2018-02-06T12:18:14.320Z,52.67
2018-02-06T12:20:41.835Z,41.92
2018-02-06T12:23:09.378Z,38.95
2018-02-06T12:25:36.879Z,45.00
2018-02-06T12:28:05.198Z,50.95
2018-02-06T12:30:32.702Z,42.50
2018-02-06T12:33:00.205Z,44.20
2018-02-06T12:35:27.726Z,43.15
2018-02-06T12:37:56.032Z,46.45
2018-02-06T12:40:23.538Z,41.05
2018-02-06T12:42:51.079Z,49.45
2018-02-06T12:45:18.614Z,45.00
2018-02-06T12:47:46.147Z,44.55
2018-02-06T12:50:14.444Z,49.13
2018-02-06T12:52:41.992Z,42.72
2018-02-06T12:55:09.545Z,42.35
2018-02-06T12:57:37.855Z,47.40
2018-02-06T13:00:05.400Z,42.47
2018-02-06T13:02:32.910Z,42.80
2018-02-06T13:05:00.452Z,45.95
2018-02-06T13:07:27.967Z,45.87
2018-02-06T13:09:55.501Z,45.65
2018-02-06T13:12:23.792Z,41.75
2018-02-06T13:14:52.111Z,45.08
2018-02-06T13:17:19.674Z,44.63
2018-02-06T13:19:47.212Z,47.70
2018-02-06T13:22:14.737Z,43.10
2018-02-06T13:24:43.014Z,48.58
2018-02-06T13:27:12.179Z,43.28
2018-02-06T13:29:39.724Z,42.60
2018-02-06T13:32:07.279Z,46.55
2018-02-06T13:34:34.799Z,43.45
2018-02-06T13:37:02.323Z,44.70
2018-02-06T13:39:29.850Z,45.35
2018-02-06T13:41:57.373Z,42.95
2018-02-06T13:44:24.916Z,40.80
2018-02-06T13:46:52.455Z,42.03
2018-02-06T13:49:20.006Z,43.93
2018-02-06T13:51:47.518Z,48.07
2018-02-06T13:54:15.039Z,43.30
2018-02-06T13:56:42.578Z,45.20
2018-02-06T13:59:10.099Z,44.70
2018-02-06T14:01:37.638Z,47.20
2018-02-06T14:04:05.911Z,47.03
2018-02-06T14:06:34.219Z,46.63
2018-02-06T14:09:01.744Z,47.87
2018-02-06T14:11:30.082Z,47.80
2018-02-06T14:13:57.620Z,50.37
2018-02-06T14:16:25.166Z,44.40
2018-02-06T14:18:52.705Z,46.47
2018-02-06T14:21:20.256Z,45.45
2018-02-06T14:23:48.543Z,44.47
2018-02-06T14:26:16.086Z,45.40
2018-02-06T14:28:44.385Z,45.38
2018-02-06T14:31:11.943Z,45.12
2018-02-06T14:33:40.318Z,44.30
2018-02-06T14:36:07.866Z,46.28
2018-02-06T14:38:36.192Z,44.75
2018-02-06T14:41:03.733Z,42.60
2018-02-06T14:43:31.286Z,42.50
2018-02-06T14:45:58.827Z,46.72
2018-02-06T14:48:26.395Z,43.50
2018-02-06T14:50:53.935Z,47.53
2018-02-06T14:53:22.280Z,46.33
2018-02-06T14:55:49.855Z,45.38
2018-02-06T14:58:17.378Z,50.28
2018-02-06T15:00:44.917Z,49.77
2018-02-06T15:03:12.450Z,50.73
2018-02-06T15:05:40.773Z,48.13
2018-02-06T15:08:08.299Z,43.55
2018-02-06T15:10:35.853Z,46.17
2018-02-06T15:13:04.131Z,44.03
2018-02-06T15:15:31.703Z,48.15
2018-02-06T15:17:59.230Z,49.83
2018-02-06T15:20:27.535Z,47.85
2018-02-06T15:22:55.079Z,42.90
2018-02-06T15:25:23.401Z,49.53
2018-02-06T15:27:50.928Z,46.60
2018-02-06T15:30:18.443Z,44.72
2018-02-06T15:32:45.984Z,45.75
2018-02-06T15:35:13.517Z,46.72
2018-02-06T15:37:41.036Z,43.67
2018-02-06T15:40:09.311Z,48.40
2018-02-06T15:42:36.832Z,46.30
2018-02-06T15:45:04.392Z,49.40
2018-02-06T15:47:31.903Z,52.38
2018-02-06T15:50:00.237Z,48.72
2018-02-06T15:52:27.740Z,44.97
2018-02-06T15:54:56.060Z,47.70
2018-02-06T15:57:23.607Z,51.10
2018-02-06T15:59:51.167Z,52.88
2018-02-06T16:02:18.674Z,49.13
2018-02-06T16:04:46.236Z,50.83
2018-02-06T16:07:13.774Z,47.80
2018-02-06T16:09:41.352Z,50.35
2018-02-06T16:12:08.909Z,44.05
2018-02-06T16:14:36.484Z,49.30
2018-02-06T16:17:04.787Z,50.63
2018-02-06T16:19:32.372Z,50.38
2018-02-06T16:22:00.630Z,50.42
2018-02-06T16:24:28.157Z,42.22
2018-02-06T16:26:56.461Z,49.22
2018-02-06T16:29:23.969Z,47.55
2018-02-06T16:31:51.496Z,46.83
2018-02-06T16:34:19.047Z,49.25
2018-02-06T16:36:46.551Z,50.38
2018-02-06T16:39:14.116Z,49.45
2018-02-06T16:41:42.405Z,53.28
2018-02-06T16:44:10.737Z,56.08
2018-02-06T16:46:38.258Z,53.85
2018-02-06T16:49:05.779Z,54.30
2018-02-06T16:51:33.366Z,56.67
2018-02-06T16:54:01.672Z,59.50
2018-02-06T16:56:29.219Z,54.05
2018-02-06T16:58:56.724Z,52.95
2018-02-06T17:01:24.340Z,62.47
2018-02-06T17:03:51.883Z,65.07
2018-02-06T17:06:20.200Z,56.50
2018-02-06T17:08:47.730Z,68.75
2018-02-06T17:11:15.245Z,67.85
2018-02-06T17:13:42.783Z,66.82
2018-02-06T17:16:10.283Z,71.03
2018-02-06T17:18:37.940Z,77.30
2018-02-06T17:21:05.440Z,71.15
2018-02-06T17:23:32.940Z,102.80
2018-02-06T17:26:00.478Z,98.22
2018-02-06T17:28:27.987Z,93.32
2018-02-06T17:30:56.525Z,86.97
2018-02-06T17:33:24.057Z,81.47
2018-02-06T17:35:51.605Z,89.62
2018-02-06T17:38:19.190Z,91.15
2018-02-06T17:40:46.705Z,66.00
2018-02-06T17:43:15.131Z,74.12
2018-02-06T17:45:42.681Z,70.82
2018-02-06T17:48:10.334Z,62.80
2018-02-06T17:50:37.843Z,72.78
2018-02-06T17:53:05.391Z,76.43
2018-02-06T17:55:32.908Z,95.20
2018-02-06T17:58:00.421Z,84.60
2018-02-06T18:00:27.980Z,88.78
2018-02-06T18:02:55.505Z,83.37
2018-02-06T18:05:23.023Z,72.53
2018-02-06T18:07:51.389Z,82.07
2018-02-06T18:10:18.962Z,96.70
2018-02-06T18:12:47.238Z,78.87
2018-02-06T18:15:14.855Z,59.45
2018-02-06T18:17:42.384Z,66.90
2018-02-06T18:20:09.876Z,59.47
2018-02-06T18:22:37.458Z,60.80
2018-02-06T18:25:05.746Z,66.68
2018-02-06T18:27:34.041Z,67.10
2018-02-06T18:30:01.585Z,56.22
2018-02-06T18:32:29.852Z,65.82
2018-02-06T18:35:23.643Z,66.68
2018-02-06T18:37:51.708Z,54.08
2018-02-06T18:40:24.964Z,62.90
2018-02-06T18:42:52.708Z,68.32
2018-02-06T18:45:20.326Z,76.47
2018-02-06T18:47:47.859Z,85.18
2018-02-06T18:50:15.392Z,78.00
2018-02-06T18:52:43.015Z,72.43
2018-02-06T18:55:10.802Z,71.95
2018-02-06T18:57:38.361Z,64.47
2018-02-06T19:00:05.872Z,82.65
2018-02-06T19:02:34.246Z,72.97
2018-02-06T19:05:02.804Z,68.20
2018-02-06T19:07:31.238Z,59.35
2018-02-06T19:09:58.776Z,61.40
2018-02-06T19:12:27.129Z,59.55
2018-02-06T19:14:54.671Z,54.53
2018-02-06T19:17:22.352Z,56.03
2018-02-06T19:19:51.095Z,67.68
2018-02-06T19:22:18.820Z,67.87
2018-02-06T19:24:46.398Z,67.65
2018-02-06T19:27:14.738Z,65.35
2018-02-06T19:29:42.271Z,61.42
2018-02-06T19:32:09.857Z,68.62
2018-02-06T19:34:37.467Z,56.75
2018-02-06T19:37:04.996Z,80.85
2018-02-06T19:39:33.569Z,70.28
2018-02-06T19:42:01.912Z,71.32
2018-02-06T19:44:29.459Z,70.05
2018-02-06T19:46:56.998Z,66.70
2018-02-06T19:51:57.046Z,59.00
2018-02-06T19:54:24.593Z,54.40
2018-02-06T19:56:53.611Z,56.78
2018-02-06T19:59:21.177Z,61.55
2018-02-06T20:01:48.754Z,60.35
2018-02-06T20:04:16.316Z,65.18
2018-02-06T20:06:43.897Z,73.28
2018-02-06T20:09:12.184Z,66.57
2018-02-06T20:11:40.488Z,67.82
2018-02-06T20:14:08.016Z,98.85
2018-02-06T20:16:36.339Z,114.40
2018-02-06T20:19:03.933Z,96.47
2018-02-06T20:21:31.465Z,76.20
2018-02-06T20:23:59.153Z,76.93
2018-02-06T20:26:26.700Z,71.43
2018-02-06T20:28:54.232Z,68.05
2018-02-06T20:31:21.773Z,64.22
2018-02-06T20:33:49.316Z,63.92
2018-02-06T20:36:17.637Z,66.95
2018-02-06T20:38:45.183Z,68.95
2018-02-06T20:41:12.702Z,71.18
2018-02-06T20:43:41.007Z,84.37
2018-02-06T20:46:08.523Z,71.37
2018-02-06T20:48:36.052Z,85.35
2018-02-06T20:51:03.582Z,57.72
2018-02-06T20:53:31.099Z,58.00
2018-02-06T20:55:58.657Z,60.15
2018-02-06T20:58:26.196Z,61.65
2018-02-06T21:00:53.740Z,68.82
2018-02-06T21:03:21.267Z,77.97
2018-02-06T21:05:48.794Z,81.12
2018-02-06T21:08:16.326Z,93.37
2018-02-06T21:10:43.881Z,66.87
2018-02-06T21:13:11.421Z,63.92
2018-02-06T21:15:38.966Z,60.70
2018-02-06T21:18:06.478Z,61.20
2018-02-06T21:20:33.995Z,59.70
2018-02-06T21:23:01.548Z,65.68
2018-02-06T21:25:29.172Z,65.03
2018-02-06T21:27:57.488Z,64.00
2018-02-06T21:30:25.024Z,62.72
2018-02-06T21:32:53.329Z,63.58
2018-02-06T21:35:20.888Z,63.90
2018-02-06T21:37:48.442Z,65.37
2018-02-06T21:40:15.973Z,61.70
2018-02-06T21:42:44.297Z,60.22
2018-02-06T21:45:11.839Z,66.95
2018-02-06T21:47:39.372Z,59.15
2018-02-06T21:50:07.664Z,55.42
2018-02-06T21:52:35.263Z,64.37
2018-02-06T21:55:02.733Z,61.67
2018-02-06T21:57:30.261Z,59.58
2018-02-06T21:59:57.810Z,55.65
2018-02-06T22:02:25.325Z,55.42
2018-02-06T22:04:53.628Z,58.87
2018-02-06T22:07:21.144Z,58.05
2018-02-06T22:09:48.690Z,58.13
2018-02-06T22:12:16.209Z,55.28
2018-02-06T22:14:43.728Z,52.30
2018-02-06T22:17:11.267Z,53.53
2018-02-06T22:19:38.801Z,60.15
2018-02-06T22:22:06.348Z,59.13
2018-02-06T22:24:33.855Z,53.00
2018-02-06T22:27:01.392Z,56.45
2018-02-06T22:29:28.942Z,61.37
2018-02-06T22:31:56.450Z,81.35
2018-02-06T22:34:24.725Z,60.60
2018-02-06T22:36:53.028Z,68.95
2018-02-06T22:39:20.577Z,53.72
2018-02-06T22:41:48.862Z,57.47
2018-02-06T22:44:16.375Z,59.92
2018-02-06T22:46:43.911Z,63.20
2018-02-06T22:49:11.407Z,57.05
2018-02-06T22:51:39.725Z,59.65
2018-02-06T22:54:07.223Z,58.92
2018-02-06T22:56:34.762Z,57.85
2018-02-06T22:59:02.315Z,60.50
2018-02-06T23:01:29.839Z,66.53
2018-02-06T23:03:58.120Z,65.97
2018-02-06T23:06:25.657Z,63.20
2018-02-06T23:08:53.924Z,63.25
2018-02-06T23:11:21.452Z,58.10
2018-02-06T23:13:48.948Z,59.70
2018-02-06T23:16:16.507Z,67.57
2018-02-06T23:18:44.831Z,58.40
2018-02-06T23:21:12.335Z,70.43
2018-02-06T23:23:39.867Z,64.43
2018-02-06T23:26:07.367Z,60.33
2018-02-06T23:28:35.658Z,62.17
2018-02-06T23:31:03.961Z,64.07
2018-02-06T23:33:31.486Z,63.85
2018-02-06T23:35:59.779Z,65.85
2018-02-06T23:38:27.327Z,57.00
2018-02-06T23:40:54.852Z,63.53
2018-02-06T23:43:22.398Z,58.33
2018-02-06T23:45:49.915Z,59.60
2018-02-06T23:48:17.463Z,60.10
2018-02-06T23:50:45.739Z,61.35
2018-02-06T23:53:13.298Z,62.90
2018-02-06T23:55:41.580Z,58.17
2018-02-06T23:58:09.862Z,56.35
